createdAt,value
2018-09-15T00:05:21.996Z,3.80
2018-09-15T00:15:26.050Z,3.50
2018-09-15T00:25:29.838Z,3.20
2018-09-15T00:35:33.401Z,2.60
2018-09-15T00:45:36.945Z,2.70
2018-09-15T00:55:40.566Z,2.83
2018-09-15T01:05:44.525Z,2.60
2018-09-15T01:15:48.276Z,2.37
2018-09-15T01:25:51.837Z,2.90
2018-09-15T01:35:55.689Z,2.63
2018-09-15T01:45:59.292Z,2.60
2018-09-15T01:56:03.611Z,2.23
2018-09-15T02:06:07.159Z,2.30
2018-09-15T02:16:10.837Z,2.30
2018-09-15T02:26:21.291Z,2.17
2018-09-15T02:36:24.983Z,2.20
2018-09-15T02:46:28.986Z,2.67
2018-09-15T02:56:33.159Z,2.27
2018-09-15T03:06:36.744Z,2.67
2018-09-15T03:16:40.288Z,2.73
2018-09-15T03:26:43.856Z,2.30
2018-09-15T03:36:51.831Z,2.63
2018-09-15T03:46:55.452Z,2.53
2018-09-15T03:56:59.038Z,2.63
2018-09-15T04:07:03.591Z,2.52
2018-09-15T04:17:07.647Z,2.77
2018-09-15T04:27:11.272Z,2.50
2018-09-15T04:37:16.242Z,2.80
2018-09-15T04:47:19.820Z,2.97
2018-09-15T04:57:23.695Z,2.80
2018-09-15T05:07:27.335Z,2.90
2018-09-15T05:17:31.951Z,2.77
2018-09-15T05:27:35.692Z,2.87
2018-09-15T05:37:39.323Z,3.07
2018-09-15T05:47:42.921Z,3.60
2018-09-15T05:57:46.646Z,3.27
2018-09-15T06:07:50.329Z,3.30
2018-09-15T06:17:53.846Z,3.73
2018-09-15T06:27:57.427Z,4.00
2018-09-15T06:38:01.052Z,3.97
2018-09-15T06:48:04.614Z,4.43
2018-09-15T06:58:08.332Z,4.47
2018-09-15T07:08:11.929Z,4.40
2018-09-15T07:18:15.615Z,4.63
2018-09-15T07:28:19.933Z,4.60
2018-09-15T07:38:23.752Z,4.67
2018-09-15T07:48:27.460Z,5.40
2018-09-15T07:58:31.087Z,5.03
2018-09-15T08:08:34.921Z,5.53
2018-09-15T08:18:38.608Z,4.53
2018-09-15T08:28:42.858Z,4.90
2018-09-15T08:38:46.454Z,4.73
2018-09-15T08:48:50.047Z,5.13
2018-09-15T08:58:53.674Z,4.13
2018-09-15T09:08:57.279Z,4.00
2018-09-15T09:19:00.881Z,3.70
2018-09-15T09:29:05.303Z,3.40
2018-09-15T09:39:10.088Z,3.73
2018-09-15T09:49:13.670Z,3.20
2018-09-15T09:59:17.231Z,3.27
2018-09-15T10:09:20.845Z,2.70
2018-09-15T10:19:24.445Z,2.87
2018-09-15T10:29:28.082Z,2.50
2018-09-15T10:39:31.683Z,2.70
2018-09-15T10:49:35.327Z,2.20
2018-09-15T10:59:39.297Z,2.63
2018-09-15T11:09:43.305Z,2.40
2018-09-15T11:19:46.992Z,2.60
2018-09-15T11:29:50.586Z,2.63
2018-09-15T11:39:54.212Z,2.23
2018-09-15T11:49:57.839Z,2.60
2018-09-15T12:00:01.527Z,2.45
2018-09-15T12:10:05.125Z,2.40
2018-09-15T12:20:08.774Z,2.20
2018-09-15T12:30:12.567Z,2.80
2018-09-15T12:40:16.179Z,2.47
2018-09-15T12:50:19.806Z,3.12
2018-09-15T13:00:23.480Z,2.07
2018-09-15T13:10:27.089Z,2.10
2018-09-15T13:20:30.703Z,2.20
2018-09-15T13:30:34.289Z,2.10
2018-09-15T13:40:37.910Z,2.43
2018-09-15T13:50:41.638Z,2.33
2018-09-15T14:00:45.276Z,2.80
2018-09-15T14:10:48.943Z,2.37
2018-09-15T14:20:52.605Z,2.80
2018-09-15T14:30:56.353Z,3.40
2018-09-15T14:40:59.966Z,3.60
2018-09-15T14:51:03.687Z,4.10
2018-09-15T15:01:07.338Z,3.90
2018-09-15T15:11:11.078Z,3.77
2018-09-15T15:21:14.751Z,3.60
2018-09-15T15:31:18.394Z,3.95
2018-09-15T15:41:22.063Z,3.45
2018-09-15T15:51:25.658Z,3.93
2018-09-15T16:01:29.935Z,3.13
2018-09-15T16:11:33.524Z,3.03
2018-09-15T16:21:37.103Z,3.10
2018-09-15T16:31:40.753Z,4.13
2018-09-15T16:41:44.371Z,3.00
2018-09-15T16:51:48.107Z,3.00
2018-09-15T17:01:51.830Z,3.30
2018-09-15T17:11:55.589Z,3.93
2018-09-15T17:21:59.241Z,4.40
2018-09-15T17:32:03.667Z,5.73
2018-09-15T17:42:07.277Z,5.43
2018-09-15T17:52:10.951Z,4.37
2018-09-15T18:02:14.567Z,4.37
2018-09-15T18:12:18.286Z,5.00
2018-09-15T18:22:21.848Z,5.83
2018-09-15T18:32:25.539Z,6.70
2018-09-15T18:42:29.108Z,5.43
2018-09-15T18:52:32.705Z,6.00
2018-09-15T19:02:36.649Z,6.77
2018-09-15T19:12:40.358Z,6.17
2018-09-15T19:22:44.079Z,6.30
2018-09-15T19:32:47.692Z,7.72
2018-09-15T19:42:51.600Z,8.00
2018-09-15T19:52:55.211Z,8.20
2018-09-15T20:02:58.760Z,7.97
2018-09-15T20:13:02.386Z,7.13
2018-09-15T20:23:05.937Z,7.10
2018-09-15T20:33:09.671Z,6.80
2018-09-15T20:43:13.174Z,6.67
2018-09-15T20:53:16.764Z,7.17
2018-09-15T21:03:20.463Z,7.57
2018-09-15T21:13:24.041Z,8.23
2018-09-15T21:23:28.429Z,7.20
2018-09-15T21:33:32.124Z,7.70
2018-09-15T21:43:35.990Z,8.23
2018-09-15T21:53:39.607Z,7.40
2018-09-15T22:03:48.518Z,6.93
2018-09-15T22:13:52.081Z,6.90
2018-09-15T22:23:55.747Z,6.50
2018-09-15T22:34:00.200Z,7.33
2018-09-15T22:44:04.488Z,8.20
2018-09-15T22:54:08.060Z,8.38
2018-09-15T23:04:13.421Z,7.93
2018-09-15T23:14:16.964Z,8.53
2018-09-15T23:24:20.577Z,7.63
2018-09-15T23:34:24.078Z,7.97
2018-09-15T23:44:27.648Z,7.97
2018-09-15T23:54:31.263Z,8.03
